Nearby METAR Reports

 

KSJC - San Jose, California, USA
Distance from station: NE 9mi, 14km
Updated: Wed, 24-Feb-2021 11:53am PST
Clear
Clear
 Wind from WNW
Wind: WNW 9 mph , 15 km/h, Gust: 20 mph , 31 km/h
Temperature: 66°F , 19°C
Dew Point: 25°F , -4°C
Humidity: 21%
Barometer: 30.19 inHg , 1022.4 hPa
Clouds: Clear
Visibility: 10 miles , 16 km
2021/02/24 19:53 KSJC 241953Z 30008G17KT 10SM CLR 19/M04 A3019 RMK AO2 SLP221 T01941039
KNUQ - Moffett Nas/Mtn, California, USA
Distance from station: N 9mi, 14km
Updated: Wed, 24-Feb-2021 12:30pm PST
Clear
Clear
 Wind from varies
Wind: varies 7 mph , 11 km/h, Gust: 14 mph , 22 km/h
Temperature: 66°F , 19°C
Dew Point: 25°F , -4°C
Humidity: 21%
Barometer: 30.18 inHg , 1022 hPa
Clouds: Clear
Visibility: 10 miles , 16 km
2021/02/24 20:30 KNUQ 242030Z AUTO VRB06G12KT 10SM CLR 19/M04 A3018 RMK AO2
KPAO - Palo Alto, California, USA
Distance from station: NNW 14mi, 23km
Updated: Wed, 24-Feb-2021 12:47pm PST
Clear
Clear
 Wind from NW
Wind: NW 13 mph , 20 km/h
Temperature: 70°F , 21°C
Dew Point: 21°F , -6°C
Humidity: 16%
Barometer: 30.17 inHg , 1021.7 hPa
Clouds: Clear
Visibility: 10 miles , 16 km
2021/02/24 20:47 KPAO 242047Z 31011KT 10SM SKC 21/M06 A3017
 
KRHV - San Jose/Reid, California, USA
Distance from station: ENE 12mi, 19km
Updated: Wed, 24-Feb-2021 11:50am PST
Clear
Clear
 Wind from NNW
Wind: NNW 22 mph , 35 km/h, Gust: 28 mph , 44 km/h
Temperature: 68°F , 20°C
Dew Point: 16°F , -9°C
Humidity: 13%
Barometer: 30.17 inHg , 1021.7 hPa
Clouds: Clear
Visibility: 10 miles , 16 km
2021/02/24 19:50 KRHV 241950Z 34019G24KT 10SM SKC 20/M09 A3017
KOAK - Oakland, California, USA
Distance from station: NNW 31mi, 50km
Updated: Wed, 24-Feb-2021 11:53am PST
Clear
Clear
 Wind from WSW
Wind: WSW 7 mph , 11 km/h
Temperature: 64°F , 18°C
Dew Point: 37°F , 3°C
Humidity: 37%
Barometer: 30.20 inHg , 1022.7 hPa
Clouds: Clear
Visibility: 10 miles , 16 km
2021/02/24 19:53 KOAK 241953Z 24006KT 10SM CLR 18/03 A3020 RMK AO2 SLP228 T01830033
KSQL - San Carlos Airpo, California, USA
Distance from station: NW 21mi, 34km
Updated: Wed, 24-Feb-2021 11:58am PST
Clear
Clear
 Wind from W
Wind: W 10 mph , 17 km/h
Temperature: 66°F , 19°C
Dew Point: 18°F , -8°C
Humidity: 15%
Barometer: 30.21 inHg , 1023 hPa
Clouds: Clear
Visibility: 10 miles , 16 km
2021/02/24 19:58 KSQL 241958Z 27009KT 10SM SKC 19/M08 A3021
 
KSFO - San Francisco, California, USA
Distance from station: NW 30mi, 49km
Updated: Wed, 24-Feb-2021 11:56am PST
Clear
Clear
 Wind from NE
Wind: NE 6 mph , 9 km/h
Temperature: 64°F , 18°C
Dew Point: 37°F , 3°C
Humidity: 37%
Barometer: 30.20 inHg , 1022.7 hPa
Clouds: Clear
Visibility: 10 miles , 16 km
2021/02/24 19:56 KSFO 241956Z 04005KT 10SM CLR 18/03 A3020 RMK AO2 SLP225 T01780033 CHINO RWY L10
KE16 - San Martin, California, USA
Distance from station: ESE 27mi, 43km
Updated: Wed, 24-Feb-2021 12:35pm PST
Clear
Clear
 Wind from WNW
Wind: WNW 18 mph , 30 km/h, Gust: 22 mph , 35 km/h
Temperature: 68°F , 20°C
Dew Point: 14°F , -10°C
Humidity: 12%
Barometer: 30.16 inHg , 1021.3 hPa
Clouds: Clear
Visibility: 10 miles , 16 km
2021/02/24 20:35 KE16 242035Z AUTO 29016G19KT 10SM CLR 20/M10 A3016 RMK AO2
KWVI - Watsonville, California, USA
Distance from station: SSE 27mi, 44km
Updated: Wed, 24-Feb-2021 11:53am PST
Clear
Clear
 Wind from SSW
Wind: SSW 6 mph , 9 km/h
Temperature: 63°F , 17°C
Dew Point: 43°F , 6°C
Humidity: 49%
Barometer: 30.17 inHg , 1021.7 hPa
Clouds: Clear
Visibility: 10 miles , 16 km
2021/02/24 19:53 KWVI 241953Z AUTO 21005KT 10SM CLR 17/06 A3017 RMK AO2 SLP216 T01720061
 
KHAF - Half Moon Bay, California, USA
Distance from station: WNW 31mi, 50km
Updated: Wed, 24-Feb-2021 12:35pm PST
Haze, Clear
Haze, Clear
 Wind from NNW
Wind: NNW 18 mph , 30 km/h
Temperature: 55°F , 13°C
Dew Point: 46°F , 8°C
Humidity: 72%
Barometer: 30.20 inHg , 1022.7 hPa
Summary: Haze
Clouds: Clear
Visibility: 4 miles , 6 km
2021/02/24 20:35 KHAF 242035Z AUTO 33016KT 4SM HZ CLR 13/08 A3020 RMK AO2
KHWD - Hayward, California, USA
Distance from station: N 28mi, 44km
Updated: Wed, 24-Feb-2021 11:54am PST
Clear
Clear
 Wind from W
Wind: W 10 mph , 17 km/h
Temperature: 64°F , 18°C
Dew Point: 36°F , 2°C
Humidity: 34%
Barometer: 30.19 inHg , 1022.4 hPa
Clouds: Clear
Visibility: 10 miles , 16 km
2021/02/24 19:54 KHWD 241954Z 28009KT 10SM CLR 18/02 A3019 RMK AO2 SLP233 T01830017
KLVK - Livermore, California, USA
Distance from station: NNE 31mi, 51km
Updated: Wed, 24-Feb-2021 11:53am PST
Clear
Clear
 Wind from NNE
Wind: NNE 10 mph , 17 km/h, Gust: 20 mph , 31 km/h
Temperature: 66°F , 19°C
Dew Point: 7°F , -14°C
Humidity: 9%
Barometer: 30.20 inHg , 1022.7 hPa
Clouds: Clear
Visibility: 10 miles , 16 km
2021/02/24 19:53 KLVK 241953Z 02009G17KT 10SM CLR 19/M14 A3020 RMK AO2 SLP226 T01941144